Hoppa till innehåll

METAR väder och rapporter - ESGG

Nedan listas information från vald flygplats. Andra METARs finns längre ned på sidan. Kontakta oss om någon saknas eller skriv in egen ICAO-kod.

Andra intressanta METARs

Klicka på önskad rubrik nedan för att visa nuvarande väder för den platsen.

Avstånd från stationen: NO 27kmESGG - Göteborg (Landvetter)
Uppdaterad: 2018-05-22 16:50
 Vind från VSV
Vind: VSV 19 km/h
Temperatur: 21°C
Daggpunkt: 5°C
Luftfuktighet: 35%
Barometer: 1018 hPa
Summering: Klart
Sikt: mer än 10 km
2018/05/22 14:50 ESGG 221450Z 25010KT CAVOK 21/05 Q1018
Klart
Klart
  Visa detaljer för Göteborg (Landvetter)
Avstånd från stationen: N 28kmESGP - Göteborg (Säve)
Uppdaterad: 2017-01-02 11:20
Ej aktuell
 Vind från calm
Vind: Vindstilla
Temperatur: -2°C
Daggpunkt: -4°C
Luftfuktighet: 86%
Barometer: 1012 hPa
Moln: Klart
Sikt: 10 km
2017/01/02 10:20 ESGP 021020Z AUTO 00000KT 9999 NCD M02/M04 Q1012
Klart
Klart
  Visa detaljer för Göteborg (Säve)
Avstånd från stationen: NO 419kmESSA - Stockholm (Arlanda)
Uppdaterad: 2018-05-22 16:50
 Vind från S
Vind: S 19 km/h
Temperatur: 22°C
Daggpunkt: 5°C
Luftfuktighet: 33%
Barometer: 1018 hPa
Summering: Klart
Sikt: mer än 10 km
2018/05/22 14:50 ESSA 221450Z 18010KT CAVOK 22/05 Q1018 NOSIG
Klart
Klart
  Visa detaljer för Stockholm (Arlanda)
Avstånd från stationen: ONO 404kmESSB - Stockholm (Bromma)
Uppdaterad: 2018-05-22 16:50
 Vind från SSV
Vind: SSV 15 km/h
Temperatur: 23°C
Daggpunkt: 4°C
Luftfuktighet: 29%
Barometer: 1018 hPa
Summering: Klart
Sikt: mer än 10 km
2018/05/22 14:50 ESSB 221450Z 21008KT CAVOK 23/04 Q1018
Klart
Klart
  Visa detaljer för Stockholm (Bromma)
Avstånd från stationen: ONO 323kmESKN - Stockholm (Skavsta)
Uppdaterad: 2018-05-22 16:50
 Vind från SSO
Vind: SSO 13 km/h
Temperatur: 22°C
Daggpunkt: 4°C
Luftfuktighet: 31%
Barometer: 1018 hPa
Summering: Klart
Sikt: mer än 10 km
2018/05/22 14:50 ESKN 221450Z 16007KT 130V210 CAVOK 22/04 Q1018
Klart
Klart
  Visa detaljer för Stockholm (Skavsta)
Avstånd från stationen: SSO 238kmESMS - Malmö flygplats (Sturup)
Uppdaterad: 2018-05-22 16:50
 Vind från SO
Vind: SO 15 km/h
Temperatur: 21°C
Daggpunkt: 7°C
Luftfuktighet: 40%
Barometer: 1018 hPa
Summering: Klart
Sikt: mer än 10 km
2018/05/22 14:50 ESMS 221450Z 14008KT 110V170 CAVOK 21/07 Q1018
Klart
Klart
  Visa detaljer för Malmö flygplats (Sturup)
Avstånd från stationen: O 382kmESSV - Visby flygplats
Uppdaterad: 2018-05-22 16:50
 Vind från SSO
Vind: SSO 19 km/h
Temperatur: 20°C
Daggpunkt: 7°C
Luftfuktighet: 43%
Barometer: 1018 hPa
Summering: Klart
Sikt: mer än 10 km
2018/05/22 14:50 ESSV 221450Z 16010KT CAVOK 20/07 Q1018
Klart
Klart
  Visa detaljer för Visby flygplats
Avstånd från stationen: NNO 92kmESGT - Trollhättan
Uppdaterad: 2018-05-22 16:50
 Vind från NNO
Vind: NNO 13 km/h
Temperatur: 23°C
Daggpunkt: 3°C
Luftfuktighet: 27%
Barometer: 1018 hPa
Summering: Klart
Sikt: mer än 10 km
2018/05/22 14:50 ESGT 221450Z 02007KT 320V070 CAVOK 23/03 Q1018
Klart
Klart
  Visa detaljer för Trollhättan
Avstånd från stationen: ONO 129kmESGJ - Jönköpings flygplats
Uppdaterad: 2018-05-22 16:50
 Vind från NO
Vind: NO 13 km/h
Temperatur: 21°C
Daggpunkt: 4°C
Luftfuktighet: 33%
Barometer: 1018 hPa
Summering: Klart
Sikt: mer än 10 km
2018/05/22 14:50 ESGJ 221450Z 05007KT CAVOK 21/04 Q1018
Klart
Klart
  Visa detaljer för Jönköpings flygplats
Avstånd från stationen: NNO 229kmESOK - Karlstad
Uppdaterad: 2018-05-22 16:50
 Vind från S
Vind: S 11 km/h
Temperatur: 23°C
Daggpunkt: 1°C
Luftfuktighet: 23%
Barometer: 1018 hPa
Summering: Klart
Sikt: mer än 10 km
2018/05/22 14:50 ESOK 221450Z 17006KT CAVOK 23/01 Q1018
Klart
Klart
  Visa detaljer för Karlstad
Avstånd från stationen: N 643kmESNZ - Östersund (Frösön)
Uppdaterad: 2018-05-22 16:50
 Vind från NNV
Vind: NNV 30 km/h
Temperatur: 19°C
Daggpunkt: 6°C
Luftfuktighet: 43%
Barometer: 1020 hPa
Summering: Klart
Sikt: mer än 10 km
2018/05/22 14:50 ESNZ 221450Z 33016KT CAVOK 19/06 Q1020
Klart
Klart
  Visa detaljer för Östersund (Frösön)
Avstånd från stationen: SSO 216kmEKCH - Köpenhamn (Kastrup)
Uppdaterad: 2018-05-22 16:50
 Vind från S
Vind: S 17 km/h
Temperatur: 18°C
Daggpunkt: 12°C
Luftfuktighet: 68%
Barometer: 1018 hPa
Summering: Klart
Sikt: mer än 10 km
2018/05/22 14:50 EKCH 221450Z 18009KT CAVOK 18/12 Q1018 NOSIG
Klart
Klart
  Visa detaljer för Köpenhamn (Kastrup)
Avstånd från stationen: SV 263kmEKBI - Billund Airport
Uppdaterad: 2018-05-22 16:50
 Vind från O
Vind: O 9 km/h
Temperatur: 23°C
Daggpunkt: 5°C
Luftfuktighet: 31%
Barometer: 1017 hPa
Moln: Klart
Sikt: 16 miles
2018/05/22 14:50 EKBI 221450Z AUTO 08005KT 040V130 9999NDV NCD 23/05 Q1017
Klart
Klart
  Visa detaljer för Billund Airport
Avstånd från stationen: N 302kmENGM - Oslo (Gardermoen)
Uppdaterad: 2018-05-22 16:50
 Vind från S
Vind: S 11 km/h
Temperatur: 23°C
Daggpunkt: -1°C
Luftfuktighet: 20%
Barometer: 1017 hPa
Summering: Klart
Sikt: mer än 10 km
2018/05/22 14:50 ENGM 221450Z 19006KT 110V250 CAVOK 23/M01 Q1017 NOSIG
Klart
Klart
  Visa detaljer för Oslo (Gardermoen)
Avstånd från stationen: NO 540kmEFMA - Mariehamn / Åland
Uppdaterad: 2018-05-22 16:50
 Vind från S
Vind: S 9 km/h
Temperatur: 19°C
Daggpunkt: 7°C
Luftfuktighet: 46%
Barometer: 1019 hPa
Summering: Klart
Sikt: mer än 10 km
2018/05/22 14:50 EFMA 221450Z AUTO 19005KT 160V240 CAVOK 19/07 Q1019
Klart
Klart
  Visa detaljer för Mariehamn / Åland
Avstånd från stationen: S 558kmEDDT - Berlin (Tegel), Germany
Uppdaterad: 2018-05-22 16:50
 Vind från ONO
Vind: ONO 13 km/h
Temperatur: 24°C
Daggpunkt: 3°C
Luftfuktighet: 25%
Barometer: 1015 hPa
Summering: Klart
Sikt: mer än 10 km
2018/05/22 14:50 EDDT 221450Z 06007KT 360V130 CAVOK 24/03 Q1015 NOSIG
Klart
Klart
  Visa detaljer för Berlin (Tegel), Germany
Avstånd från stationen: SV 737kmEHAM - Amsterdam (Schiphol)
Uppdaterad: 2018-05-22 16:55
 Vind från NNO
Vind: NNO 9 km/h
Temperatur: 21°C
Daggpunkt: 11°C
Luftfuktighet: 53%
Barometer: 1013 hPa
Moln: Några få moln
Sikt: 10 km
Molninformation: Några få moln 914 m
2018/05/22 14:55 EHAM 221455Z 03005KT 9999 FEW030 21/11 Q1013 NOSIG
Några få moln
Några få moln
  Visa detaljer för Amsterdam (Schiphol)
Avstånd från stationen: ONO 808kmEFHK - Helsingfors (Vantaa)
Uppdaterad: 2018-05-22 16:50
 Vind från SO
Vind: SO 20 km/h
Temperatur: 22°C
Daggpunkt: 4°C
Luftfuktighet: 31%
Barometer: 1019 hPa
Summering: Klart
Sikt: mer än 10 km
2018/05/22 14:50 EFHK 221450Z 13011KT CAVOK 22/04 Q1019 NOSIG
Klart
Klart
  Visa detaljer för Helsingfors (Vantaa)
Avstånd från stationen: SSV 537kmEDDW - Bremen
Uppdaterad: 2018-05-22 16:50
 Vind från SSO
Vind: SSO 11 km/h
Temperatur: 24°C
Daggpunkt: 8°C
Luftfuktighet: 36%
Barometer: 1013 hPa
Summering: Klart
Sikt: mer än 10 km
2018/05/22 14:50 EDDW 221450Z 15006KT 100V180 CAVOK 24/08 Q1013 NOSIG
Klart
Klart
  Visa detaljer för Bremen
Avstånd från stationen: SSV 861kmEDDF - Frankfurt am Main
Uppdaterad: 2018-05-22 16:50
 Vind från SO
Vind: SO 13 km/h
Temperatur: 26°C
Daggpunkt: 12°C
Luftfuktighet: 42%
Barometer: 1011 hPa
Moln: Övervägande molnigt
Sikt: 10 km
Molninformation: Delvis molnigt 1219 m
Övervägande molnigt 8534 m
2018/05/22 14:50 EDDF 221450Z 13007KT 090V190 9999 SCT040CB BKN280 26/12 Q1011 NOSIG
Övervägande molnigt
Övervägande molnigt
  Visa detaljer för Frankfurt am Main
Avstånd från stationen: SV 880kmEBBR - Bryssel international
Uppdaterad: 1970-01-01 01:00
Ej aktuell
 
unable to load EBBR data RC=404 Not Found
unable to load EBBR data RC=404 Not Found
  Visa detaljer för Bryssel international
Avstånd från stationen: SV 738kmEHAM - Amsterdam (Schiphol)
Uppdaterad: 2018-05-22 16:55
 Vind från NNO
Vind: NNO 9 km/h
Temperatur: 21°C
Daggpunkt: 11°C
Luftfuktighet: 53%
Barometer: 1013 hPa
Moln: Några få moln
Sikt: 10 km
Molninformation: Några få moln 914 m
2018/05/22 14:55 EHAM 221455Z 03005KT 9999 FEW030 21/11 Q1013 NOSIG
Några få moln
Några få moln
  Visa detaljer för Amsterdam (Schiphol)
Avstånd från stationen: SV 1044kmEGLL - London (Heathrow)
Uppdaterad: 2018-05-22 16:50
 Vind från NNO
Vind: NNO 19 km/h
Temperatur: 23°C
Daggpunkt: 10°C
Luftfuktighet: 44%
Barometer: 1017 hPa
Moln: Klart
Sikt: 10 km
2018/05/22 14:50 EGLL 221450Z AUTO 03010KT 310V080 9999 NCD 23/10 Q1017
Klart
Klart
  Visa detaljer för London (Heathrow)
Avstånd från stationen: SV 1132kmLFPG - Paris (Charles de Gaulle)
Uppdaterad: 2018-05-22 17:00
 Vind från NNV
Vind: NNV 6 km/h
Temperatur: 22°C
Daggpunkt: 11°C
Luftfuktighet: 50%
Barometer: 1012 hPa
Summering: Åska
Moln: Övervägande molnigt
Sikt: 10 km
Molninformation: Några få moln 1433 m
Delvis molnigt 1615 m
Övervägande molnigt 5486 m
2018/05/22 15:00 LFPG 221500Z 34003KT 280V030 9999 TS FEW047CB SCT053TCU BKN180 22/11 Q1012 TEMPO VRB15G30KT 2000 TSRA
Åska, Övervägande molnigt
Åska
Övervägande molnigt
  Visa detaljer för Paris (Charles de Gaulle)
Avstånd från stationen: SSV 1142kmLSZH - Zürich Airport
Uppdaterad: 2018-05-22 16:50
 Vind från NNV
Vind: NNV 17 km/h
Temperatur: 24°C
Daggpunkt: 11°C
Luftfuktighet: 44%
Barometer: 1011 hPa
Moln: Delvis molnigt
Sikt: 10 km
Molninformation: Några få moln 1646 m
Några få moln 1707 m
Delvis molnigt 3962 m
2018/05/22 14:50 LSZH 221450Z 34009KT 9999 FEW054 FEW056TCU SCT130 24/11 Q1011 NOSIG
Delvis molnigt
Delvis molnigt
  Visa detaljer för Zürich Airport
Avstånd från stationen: S 1749kmLIRF - Rome Airport (Fiumicino - Leonardo da Vinci)
Uppdaterad: 2018-05-22 16:50
 Vind från S
Vind: S 20 km/h
Temperatur: 22°C
Daggpunkt: 16°C
Luftfuktighet: 69%
Barometer: 1014 hPa
Moln: Några få moln
Sikt: 10 km
Molninformation: Några få moln 457 m
2018/05/22 14:50 LIRF 221450Z 17011KT 140V210 9999 FEW015 22/16 Q1014 NOSIG
Några få moln
Några få moln
  Visa detaljer för Rome Airport (Fiumicino - Leonardo da Vinci)
Avstånd från stationen: SO 2679kmLTAI - Antalya
Uppdaterad: 2018-05-22 16:50
 Vind från S
Vind: S 17 km/h
Temperatur: 30°C
Värmeindex: 30°C
Daggpunkt: 16°C
Luftfuktighet: 43%
Barometer: 1012 hPa
Moln: Övervägande molnigt
Sikt: 10 km
Molninformation: Några få moln 914 m
Övervägande molnigt 6096 m
2018/05/22 14:50 LTAI 221450Z 18009KT 9999 FEW030 BKN200 30/16 Q1012 NOSIG
Övervägande molnigt
Övervägande molnigt
  Visa detaljer för Antalya
Avstånd från stationen: VSV 6074kmKJFK - New Your (JFK)
Uppdaterad: 2018-05-22 16:51
 Vind från SSO
Vind: SSO 19 km/h
Temperatur: 17°C
Daggpunkt: 12°C
Luftfuktighet: 73%
Barometer: 1021.7 hPa
Moln: Genommulet
Sikt: 16 km
Molninformation: Övervägande molnigt 2286 m
Genommulet 3962 m
2018/05/22 14:51 KJFK 221451Z 16010KT 10SM BKN075 OVC130 17/12 A3017 RMK AO2 SLP216 VCSH N-NE T01720117 58001
Genommulet
Genommulet
  Visa detaljer för New Your (JFK)
Avstånd från stationen: VSV 8848kmKLAX - Los Angeles International Airport
Uppdaterad: 2018-05-22 16:53
 Vind från NO
Vind: NO 6 km/h
Temperatur: 17°C
Daggpunkt: 11°C
Luftfuktighet: 68%
Barometer: 1013.5 hPa
Moln: Genommulet
Sikt: 13 km
Molninformation: Några få moln 762 m
Genommulet 1189 m
2018/05/22 14:53 KLAX 221453Z 04003KT 8SM FEW025 OVC039 17/11 A2993 RMK AO2 SLP132 T01670106 51013
Genommulet
Genommulet
  Visa detaljer för Los Angeles International Airport
Avstånd från stationen: SO 4968kmOMDB - Dubai International Airport
Uppdaterad: 2018-05-22 17:00
 Vind från NNO
Vind: NNO 15 km/h
Temperatur: 36°C
Daggpunkt: 11°C
Luftfuktighet: 22%
Barometer: 1008 hPa
Summering: Klart
Sikt: mer än 10 km
2018/05/22 15:00 OMDB 221500Z 03008KT 010V070 CAVOK 36/11 Q1008 NOSIG
Klart
Klart
  Visa detaljer för Dubai International Airport
Avstånd från stationen: OSO 8570kmRJTT - Tokyo International Airport
Uppdaterad: 2018-05-22 17:00
 Vind från SO
Vind: SO 11 km/h
Temperatur: 18°C
Daggpunkt: 14°C
Luftfuktighet: 78%
Barometer: 1016 hPa
Moln: Några få moln
Sikt: 10 km
Molninformation: Några få moln 914 m
2018/05/22 15:00 RJTT 221500Z 14006KT 9999 FEW030 18/14 Q1016 NOSIG RMK 1CU030 A3001
Några få moln
Några få moln
  Visa detaljer för Tokyo International Airport
Avstånd från stationen: OSO 7125kmZBAA - Peking (Beijing Capital)
Uppdaterad: 2018-05-22 17:00
 Vind från varierande
Vind: varierande 4 km/h
Temperatur: 13°C
Daggpunkt: -5°C
Luftfuktighet: 28%
Barometer: 1012 hPa
Summering: Klart
Sikt: mer än 10 km
2018/05/22 15:00 ZBAA 221500Z VRB01MPS CAVOK 13/M05 Q1012 NOSIG
Klart
Klart
  Visa detaljer för Peking (Beijing Capital)
VÄDER KURIOSA -  Weather TermsFunnel Cloud - A rotating column of air, extending from a towering cumulus or cumulonimbus cloud, that is not in contact with the ground.